UMMSUMGG

Guest
Details From UMMS - Minsk Velikiydvor
To UMGG - Gomel
Flight Number -
Tags generated
Created
Modified
Stats Distance 135 nm / 251 km
Max Altitude 12,600 ft / 3,840 m
Waypoints 3
Social Downloads 5
Likes 0
Share VATSIM

Download

Looking for another format? Having issues loading an existing format? Contact us
Advertisement - Login to hide

Notes

Basic altitude profile: - Ascent Rate: 2500ft/min - Ascent Speed: 250kts - Cruise Altitude: 35000ft - Cruise Speed: 420kts - Descent Rate: 1500ft/min - Descent Speed: 250kts Options: - Use NATs: yes - Use PACOTS: yes - Use low airways: yes - Use high airways: yes

Route

UMMS NASKA UMGG

ID Type Via Altitude Latitude Longitude Leg Dist Tot Dist Heading (true) Name
O UMMS APT - 0 ft / 0 m 53.88255˚ 28.03079˚ - 0 nm - Minsk Velikiydvor
NASKA FIX - 12,600 ft / 3,840 m 53.61667˚ 28.91667˚ 35 nm 35 nm 117° / 117° -
O UMGG APT - 0 ft / 0 m 52.52703˚ 31.01647˚ 100 nm 135 nm 130° / 132° Gomel

Altitude Profile

Advertisement - Login to hide

UMMS

Details ICAO UMMS (MSQ)
Name Minsk Velikiydvor
Region Belarus and Russia (Kaliningrad Oblast)
Timezone Europe/Minsk (UTC+3.0)
Stats Elevation 669 ft / 204 m (AMSL)
Location 53.882550° 28.030786°
Runways 1
Magnetic Variation 8.022° E

METAR

UMMS 200830Z 24002MPS 4700 BR BKN006 OVC018 M01/M02 Q1004 R31/590439 NOSIG RMK QBB190

Decode

TAF

TAF AMD UMMS 200854Z 2009/2106 26006MPS 4000 -SN BR BKN004 TEMPO 2009/2014 1200 -FZDZ SHSN BKN003 BKN010CB TEMPO 2014/2106 0300 -FZDZ FZFG VV003

Decode

Departure Runways

ID Width Length Bearing (true) Bearing (mag) Surface Threshold Offset Overrun Length
13 197 ft / 60 m 11,938 ft / 3,639 m 138.85° 130.83° Concrete 0 ft / 0 m 0 ft / 0 m
31 197 ft / 60 m 11,938 ft / 3,639 m 318.88° 310.86° Concrete 0 ft / 0 m 0 ft / 0 m

UMGG

Details ICAO UMGG (GME)
Name Gomel
Region Belarus and Russia (Kaliningrad Oblast)
Timezone Europe/Minsk (UTC+3.0)
Stats Elevation 472 ft / 144 m (AMSL)
Location 52.527026° 31.016471°
Runways 1
Magnetic Variation 8.347° E

METAR

UMGG 200830Z 22005G08MPS 2800 -SHSN BLSN OVC007CB M01/M02 Q1006 R10/N NOSIG

Decode

TAF

TAF UMGG 200500Z 2006/2106 22006MPS 3000 BR OVC007 TEMPO 2006/2015 23007G12MPS 2000 SHSN BLSN BKN005 BKN015CB TEMPO 2015/2106 25004MPS 1200 BCFG BKN004

Decode

Destination Runways

ID Width Length Bearing (true) Bearing (mag) Surface Threshold Offset Overrun Length
11 141 ft / 43 m 8,405 ft / 2,562 m 110.82° 102.47° Asphalt 0 ft / 0 m 164 ft / 50 m
29 141 ft / 43 m 8,405 ft / 2,562 m 290.85° 282.50° Asphalt 0 ft / 0 m 164 ft / 50 m

Approach Navaids

Runway Type Ident Frequency Range Bearing (true) Bearing (mag) Slope Elevation
11 Localiser IGM 109.30 MHz 18 nm / 33 km 110.82° 102.47° - 471 ft / 144 m (AMSL)
11 Glidescope IGM 109.30 MHz 10 nm / 19 km 109.18° 100.83° 2.70° 471 ft / 144 m (AMSL)
29 Localiser IMV 108.70 MHz 18 nm / 33 km 290.82° 282.47° - 471 ft / 144 m (AMSL)
29 Glidescope IMV 108.70 MHz 10 nm / 19 km 290.82° 282.47° 2.70° 471 ft / 144 m (AMSL)

Popular Alternatives